sensor_id;sensor_type;location;lat;lon;timestamp;temperature;humidity
51719;DHT22;37795;53.236;5.704;2023-05-07T00:00:39;13.10;84.60
51719;DHT22;37795;53.236;5.704;2023-05-07T00:03:05;13.10;84.60
51719;DHT22;37795;53.236;5.704;2023-05-07T00:05:32;13.10;84.50
51719;DHT22;37795;53.236;5.704;2023-05-07T00:07:57;13.10;84.50
51719;DHT22;37795;53.236;5.704;2023-05-07T00:10:23;13.10;84.60
51719;DHT22;37795;53.236;5.704;2023-05-07T00:12:49;13.10;84.40
51719;DHT22;37795;53.236;5.704;2023-05-07T00:15:15;13.10;84.70
51719;DHT22;37795;53.236;5.704;2023-05-07T00:17:40;13.10;84.40
51719;DHT22;37795;53.236;5.704;2023-05-07T00:20:07;13.10;84.60
51719;DHT22;37795;53.236;5.704;2023-05-07T00:22:33;13.10;84.60
51719;DHT22;37795;53.236;5.704;2023-05-07T00:24:58;13.00;84.60
51719;DHT22;37795;53.236;5.704;2023-05-07T00:27:24;13.10;84.70
51719;DHT22;37795;53.236;5.704;2023-05-07T00:29:50;13.10;84.80
51719;DHT22;37795;53.236;5.704;2023-05-07T00:32:16;13.10;84.80
51719;DHT22;37795;53.236;5.704;2023-05-07T00:34:43;13.20;84.70
51719;DHT22;37795;53.236;5.704;2023-05-07T00:37:09;13.20;84.60
51719;DHT22;37795;53.236;5.704;2023-05-07T00:39:35;13.10;84.50
51719;DHT22;37795;53.236;5.704;2023-05-07T00:42:01;13.20;84.50
51719;DHT22;37795;53.236;5.704;2023-05-07T00:44:28;13.10;84.40
51719;DHT22;37795;53.236;5.704;2023-05-07T00:46:54;13.10;84.40
51719;DHT22;37795;53.236;5.704;2023-05-07T00:49:20;13.20;84.50
51719;DHT22;37795;53.236;5.704;2023-05-07T00:51:46;13.20;84.40
51719;DHT22;37795;53.236;5.704;2023-05-07T00:54:13;13.20;84.20
51719;DHT22;37795;53.236;5.704;2023-05-07T00:56:39;13.20;84.30
51719;DHT22;37795;53.236;5.704;2023-05-07T00:59:06;13.20;84.30
51719;DHT22;37795;53.236;5.704;2023-05-07T01:01:31;13.20;84.20
51719;DHT22;37795;53.236;5.704;2023-05-07T01:03:57;13.20;84.20
51719;DHT22;37795;53.236;5.704;2023-05-07T01:06:24;13.20;84.10
51719;DHT22;37795;53.236;5.704;2023-05-07T01:08:51;13.20;83.90
51719;DHT22;37795;53.236;5.704;2023-05-07T01:11:18;13.20;83.90
51719;DHT22;37795;53.236;5.704;2023-05-07T01:13:46;13.20;83.80
51719;DHT22;37795;53.236;5.704;2023-05-07T01:16:13;13.20;83.80
51719;DHT22;37795;53.236;5.704;2023-05-07T01:18:39;13.20;83.90
51719;DHT22;37795;53.236;5.704;2023-05-07T01:21:05;13.20;83.90
51719;DHT22;37795;53.236;5.704;2023-05-07T01:23:33;13.20;84.00
51719;DHT22;37795;53.236;5.704;2023-05-07T01:25:59;13.20;84.00
51719;DHT22;37795;53.236;5.704;2023-05-07T01:28:24;13.10;83.90
51719;DHT22;37795;53.236;5.704;2023-05-07T01:30:53;13.10;84.00
51719;DHT22;37795;53.236;5.704;2023-05-07T01:33:21;13.10;84.10
51719;DHT22;37795;53.236;5.704;2023-05-07T01:35:50;13.10;84.10
51719;DHT22;37795;53.236;5.704;2023-05-07T01:38:18;13.10;84.20
51719;DHT22;37795;53.236;5.704;2023-05-07T01:40:44;13.10;84.00
51719;DHT22;37795;53.236;5.704;2023-05-07T01:43:10;13.10;84.00
51719;DHT22;37795;53.236;5.704;2023-05-07T01:45:36;13.10;84.10
51719;DHT22;37795;53.236;5.704;2023-05-07T01:48:03;13.10;83.90
51719;DHT22;37795;53.236;5.704;2023-05-07T01:50:30;13.10;83.90
51719;DHT22;37795;53.236;5.704;2023-05-07T01:52:57;13.10;84.10
51719;DHT22;37795;53.236;5.704;2023-05-07T01:55:23;13.10;84.10
51719;DHT22;37795;53.236;5.704;2023-05-07T01:57:49;13.10;84.10
51719;DHT22;37795;53.236;5.704;2023-05-07T02:00:15;13.10;84.10
51719;DHT22;37795;53.236;5.704;2023-05-07T02:02:41;13.10;84.10
51719;DHT22;37795;53.236;5.704;2023-05-07T02:05:07;13.00;83.90
51719;DHT22;37795;53.236;5.704;2023-05-07T02:07:32;13.10;84.10
51719;DHT22;37795;53.236;5.704;2023-05-07T02:09:58;13.00;84.10
51719;DHT22;37795;53.236;5.704;2023-05-07T02:12:24;13.00;84.20
51719;DHT22;37795;53.236;5.704;2023-05-07T02:14:50;13.00;83.90
51719;DHT22;37795;53.236;5.704;2023-05-07T02:17:15;13.00;83.90
51719;DHT22;37795;53.236;5.704;2023-05-07T02:19:41;13.00;84.00
51719;DHT22;37795;53.236;5.704;2023-05-07T02:22:07;13.00;84.00
51719;DHT22;37795;53.236;5.704;2023-05-07T02:24:33;13.00;83.90
51719;DHT22;37795;53.236;5.704;2023-05-07T02:26:59;13.00;83.90
51719;DHT22;37795;53.236;5.704;2023-05-07T02:29:25;12.90;83.90
51719;DHT22;37795;53.236;5.704;2023-05-07T02:31:51;12.90;83.90
51719;DHT22;37795;53.236;5.704;2023-05-07T02:34:18;12.90;84.00
51719;DHT22;37795;53.236;5.704;2023-05-07T02:36:44;12.90;83.80
51719;DHT22;37795;53.236;5.704;2023-05-07T02:39:11;12.90;83.90
51719;DHT22;37795;53.236;5.704;2023-05-07T02:41:37;12.80;83.70
51719;DHT22;37795;53.236;5.704;2023-05-07T02:44:04;12.90;83.90
51719;DHT22;37795;53.236;5.704;2023-05-07T02:46:29;12.90;83.80
51719;DHT22;37795;53.236;5.704;2023-05-07T02:48:55;12.80;83.60
51719;DHT22;37795;53.236;5.704;2023-05-07T02:51:22;12.80;83.80
51719;DHT22;37795;53.236;5.704;2023-05-07T02:53:48;12.80;83.80
51719;DHT22;37795;53.236;5.704;2023-05-07T02:56:14;12.80;83.70
51719;DHT22;37795;53.236;5.704;2023-05-07T02:58:40;12.70;83.80
51719;DHT22;37795;53.236;5.704;2023-05-07T03:01:06;12.80;83.80
51719;DHT22;37795;53.236;5.704;2023-05-07T03:03:32;12.70;83.80
51719;DHT22;37795;53.236;5.704;2023-05-07T03:05:57;12.70;83.50
51719;DHT22;37795;53.236;5.704;2023-05-07T03:08:24;12.70;83.60
51719;DHT22;37795;53.236;5.704;2023-05-07T03:10:50;12.70;83.50
51719;DHT22;37795;53.236;5.704;2023-05-07T03:13:16;12.70;83.60
51719;DHT22;37795;53.236;5.704;2023-05-07T03:15:41;12.70;83.50
51719;DHT22;37795;53.236;5.704;2023-05-07T03:18:07;12.70;83.40
51719;DHT22;37795;53.236;5.704;2023-05-07T03:20:33;12.60;83.60
51719;DHT22;37795;53.236;5.704;2023-05-07T03:22:59;12.60;83.50
51719;DHT22;37795;53.236;5.704;2023-05-07T03:25:25;12.60;83.60
51719;DHT22;37795;53.236;5.704;2023-05-07T03:27:50;12.60;83.60
51719;DHT22;37795;53.236;5.704;2023-05-07T03:30:16;12.50;83.70
51719;DHT22;37795;53.236;5.704;2023-05-07T03:32:42;12.50;83.70
51719;DHT22;37795;53.236;5.704;2023-05-07T03:35:08;12.50;83.70
51719;DHT22;37795;53.236;5.704;2023-05-07T03:37:33;12.50;83.70
51719;DHT22;37795;53.236;5.704;2023-05-07T03:39:59;12.50;83.70
51719;DHT22;37795;53.236;5.704;2023-05-07T03:42:25;12.50;83.70
51719;DHT22;37795;53.236;5.704;2023-05-07T03:44:51;12.40;83.70
51719;DHT22;37795;53.236;5.704;2023-05-07T03:47:17;12.40;83.70
51719;DHT22;37795;53.236;5.704;2023-05-07T03:49:42;12.40;83.60
51719;DHT22;37795;53.236;5.704;2023-05-07T03:52:08;12.40;83.40
51719;DHT22;37795;53.236;5.704;2023-05-07T03:54:34;12.40;83.50
51719;DHT22;37795;53.236;5.704;2023-05-07T03:56:59;12.40;83.70
51719;DHT22;37795;53.236;5.704;2023-05-07T03:59:25;12.40;83.60
51719;DHT22;37795;53.236;5.704;2023-05-07T04:01:51;12.40;83.70
51719;DHT22;37795;53.236;5.704;2023-05-07T04:04:17;12.30;83.50
51719;DHT22;37795;53.236;5.704;2023-05-07T04:06:42;12.30;83.60
51719;DHT22;37795;53.236;5.704;2023-05-07T04:09:08;12.30;83.60
51719;DHT22;37795;53.236;5.704;2023-05-07T04:11:35;12.30;83.40
51719;DHT22;37795;53.236;5.704;2023-05-07T04:14:01;12.20;83.30
51719;DHT22;37795;53.236;5.704;2023-05-07T04:16:27;12.20;83.00
51719;DHT22;37795;53.236;5.704;2023-05-07T04:18:52;12.20;83.10
51719;DHT22;37795;53.236;5.704;2023-05-07T04:21:20;12.20;82.90
51719;DHT22;37795;53.236;5.704;2023-05-07T04:23:47;12.20;82.90
51719;DHT22;37795;53.236;5.704;2023-05-07T04:26:13;12.10;82.90
51719;DHT22;37795;53.236;5.704;2023-05-07T04:28:39;12.20;83.10
51719;DHT22;37795;53.236;5.704;2023-05-07T04:31:05;12.20;83.10
51719;DHT22;37795;53.236;5.704;2023-05-07T04:33:32;12.20;82.90
51719;DHT22;37795;53.236;5.704;2023-05-07T04:35:58;12.20;82.90
51719;DHT22;37795;53.236;5.704;2023-05-07T04:38:31;12.20;82.90
51719;DHT22;37795;53.236;5.704;2023-05-07T04:41:02;12.10;82.70
51719;DHT22;37795;53.236;5.704;2023-05-07T04:43:28;12.10;82.60
51719;DHT22;37795;53.236;5.704;2023-05-07T04:45:53;12.10;82.60
51719;DHT22;37795;53.236;5.704;2023-05-07T04:48:19;12.10;82.60
51719;DHT22;37795;53.236;5.704;2023-05-07T04:50:52;12.10;82.60
51719;DHT22;37795;53.236;5.704;2023-05-07T04:53:18;12.10;82.60
51719;DHT22;37795;53.236;5.704;2023-05-07T04:55:44;12.10;82.70
51719;DHT22;37795;53.236;5.704;2023-05-07T04:58:13;12.20;82.40
51719;DHT22;37795;53.236;5.704;2023-05-07T05:00:39;12.10;82.40
51719;DHT22;37795;53.236;5.704;2023-05-07T05:03:06;12.20;82.30
51719;DHT22;37795;53.236;5.704;2023-05-07T05:05:32;12.10;82.20
51719;DHT22;37795;53.236;5.704;2023-05-07T05:07:58;12.10;82.20
51719;DHT22;37795;53.236;5.704;2023-05-07T05:10:24;12.10;82.20
51719;DHT22;37795;53.236;5.704;2023-05-07T05:12:50;12.20;82.10
51719;DHT22;37795;53.236;5.704;2023-05-07T05:15:16;12.20;82.10
51719;DHT22;37795;53.236;5.704;2023-05-07T05:17:42;12.10;82.00
51719;DHT22;37795;53.236;5.704;2023-05-07T05:20:07;12.10;82.00
51719;DHT22;37795;53.236;5.704;2023-05-07T05:22:35;12.10;81.90
51719;DHT22;37795;53.236;5.704;2023-05-07T05:25:00;12.10;82.00
51719;DHT22;37795;53.236;5.704;2023-05-07T05:27:26;12.10;81.80
51719;DHT22;37795;53.236;5.704;2023-05-07T05:29:52;12.00;81.90
51719;DHT22;37795;53.236;5.704;2023-05-07T05:32:18;12.00;81.80
51719;DHT22;37795;53.236;5.704;2023-05-07T05:34:44;12.00;81.60
51719;DHT22;37795;53.236;5.704;2023-05-07T05:37:09;12.00;81.70
51719;DHT22;37795;53.236;5.704;2023-05-07T05:39:36;12.00;81.80
51719;DHT22;37795;53.236;5.704;2023-05-07T05:42:02;12.10;81.80
51719;DHT22;37795;53.236;5.704;2023-05-07T05:44:27;12.00;81.80
51719;DHT22;37795;53.236;5.704;2023-05-07T05:46:53;12.00;81.90
51719;DHT22;37795;53.236;5.704;2023-05-07T05:49:24;12.10;82.00
51719;DHT22;37795;53.236;5.704;2023-05-07T05:51:50;12.00;81.60
51719;DHT22;37795;53.236;5.704;2023-05-07T05:54:16;12.10;81.70
51719;DHT22;37795;53.236;5.704;2023-05-07T05:56:42;12.10;81.60
51719;DHT22;37795;53.236;5.704;2023-05-07T05:59:08;12.10;81.40
51719;DHT22;37795;53.236;5.704;2023-05-07T06:01:34;12.10;81.70
51719;DHT22;37795;53.236;5.704;2023-05-07T06:03:59;12.10;81.70
51719;DHT22;37795;53.236;5.704;2023-05-07T06:06:25;12.10;81.60
51719;DHT22;37795;53.236;5.704;2023-05-07T06:08:51;12.10;81.60
51719;DHT22;37795;53.236;5.704;2023-05-07T06:11:17;12.20;81.60
51719;DHT22;37795;53.236;5.704;2023-05-07T06:13:43;12.20;81.60
51719;DHT22;37795;53.236;5.704;2023-05-07T06:16:08;12.20;81.40
51719;DHT22;37795;53.236;5.704;2023-05-07T06:18:34;12.20;81.40
51719;DHT22;37795;53.236;5.704;2023-05-07T06:21:01;12.20;81.30
51719;DHT22;37795;53.236;5.704;2023-05-07T06:23:27;12.30;81.40
51719;DHT22;37795;53.236;5.704;2023-05-07T06:25:53;12.30;81.50
51719;DHT22;37795;53.236;5.704;2023-05-07T06:28:19;12.40;81.10
51719;DHT22;37795;53.236;5.704;2023-05-07T06:30:45;12.40;81.00
51719;DHT22;37795;53.236;5.704;2023-05-07T06:33:11;12.40;81.00
51719;DHT22;37795;53.236;5.704;2023-05-07T06:35:36;12.50;80.90
51719;DHT22;37795;53.236;5.704;2023-05-07T06:38:02;12.50;80.80
51719;DHT22;37795;53.236;5.704;2023-05-07T06:40:28;12.50;80.70
51719;DHT22;37795;53.236;5.704;2023-05-07T06:42:53;12.50;80.80
51719;DHT22;37795;53.236;5.704;2023-05-07T06:45:20;12.50;80.80
51719;DHT22;37795;53.236;5.704;2023-05-07T06:47:45;12.60;80.90
51719;DHT22;37795;53.236;5.704;2023-05-07T06:56:24;13.10;80.10
51719;DHT22;37795;53.236;5.704;2023-05-07T06:58:50;12.80;80.00
51719;DHT22;37795;53.236;5.704;2023-05-07T07:01:16;12.80;79.70
51719;DHT22;37795;53.236;5.704;2023-05-07T07:03:41;12.90;79.80
51719;DHT22;37795;53.236;5.704;2023-05-07T07:06:07;12.90;80.00
51719;DHT22;37795;53.236;5.704;2023-05-07T07:08:33;13.00;80.10
51719;DHT22;37795;53.236;5.704;2023-05-07T07:11:00;13.00;79.80
51719;DHT22;37795;53.236;5.704;2023-05-07T07:13:25;13.00;79.50
51719;DHT22;37795;53.236;5.704;2023-05-07T07:15:52;13.00;79.30
51719;DHT22;37795;53.236;5.704;2023-05-07T07:18:18;12.90;79.10
51719;DHT22;37795;53.236;5.704;2023-05-07T07:20:44;12.90;78.70
51719;DHT22;37795;53.236;5.704;2023-05-07T07:23:10;12.90;79.00
51719;DHT22;37795;53.236;5.704;2023-05-07T07:25:35;13.00;79.20
51719;DHT22;37795;53.236;5.704;2023-05-07T07:28:01;12.90;78.90
51719;DHT22;37795;53.236;5.704;2023-05-07T07:30:27;12.90;78.90
51719;DHT22;37795;53.236;5.704;2023-05-07T07:32:54;13.00;78.70
51719;DHT22;37795;53.236;5.704;2023-05-07T07:35:20;13.00;78.80
51719;DHT22;37795;53.236;5.704;2023-05-07T07:37:47;13.10;78.80
51719;DHT22;37795;53.236;5.704;2023-05-07T07:40:15;13.20;78.80
51719;DHT22;37795;53.236;5.704;2023-05-07T07:42:41;13.20;78.50
51719;DHT22;37795;53.236;5.704;2023-05-07T07:45:07;13.30;78.60
51719;DHT22;37795;53.236;5.704;2023-05-07T07:47:33;13.40;78.50
51719;DHT22;37795;53.236;5.704;2023-05-07T07:49:59;13.50;78.00
51719;DHT22;37795;53.236;5.704;2023-05-07T07:52:24;13.50;77.40
51719;DHT22;37795;53.236;5.704;2023-05-07T07:54:50;13.50;77.70
51719;DHT22;37795;53.236;5.704;2023-05-07T07:57:16;13.50;78.10
51719;DHT22;37795;53.236;5.704;2023-05-07T07:59:42;13.70;78.00
51719;DHT22;37795;53.236;5.704;2023-05-07T08:02:09;13.70;77.40
51719;DHT22;37795;53.236;5.704;2023-05-07T08:04:34;13.70;77.20
51719;DHT22;37795;53.236;5.704;2023-05-07T08:07:00;13.80;76.70
51719;DHT22;37795;53.236;5.704;2023-05-07T08:09:26;14.00;76.90
51719;DHT22;37795;53.236;5.704;2023-05-07T08:11:52;14.10;76.00
51719;DHT22;37795;53.236;5.704;2023-05-07T08:14:18;14.30;75.80
51719;DHT22;37795;53.236;5.704;2023-05-07T08:16:44;14.40;75.50
51719;DHT22;37795;53.236;5.704;2023-05-07T08:19:10;14.50;75.30
51719;DHT22;37795;53.236;5.704;2023-05-07T08:21:38;14.60;75.40
51719;DHT22;37795;53.236;5.704;2023-05-07T08:24:04;14.40;74.80
51719;DHT22;37795;53.236;5.704;2023-05-07T08:26:30;14.50;75.30
51719;DHT22;37795;53.236;5.704;2023-05-07T08:28:56;14.50;74.90
51719;DHT22;37795;53.236;5.704;2023-05-07T08:31:22;14.60;75.00
51719;DHT22;37795;53.236;5.704;2023-05-07T08:33:47;14.60;75.00
51719;DHT22;37795;53.236;5.704;2023-05-07T08:36:13;14.60;74.50
51719;DHT22;37795;53.236;5.704;2023-05-07T08:38:39;14.80;74.60
51719;DHT22;37795;53.236;5.704;2023-05-07T08:41:10;15.00;74.60
51719;DHT22;37795;53.236;5.704;2023-05-07T08:43:36;15.00;74.00
51719;DHT22;37795;53.236;5.704;2023-05-07T08:46:04;15.10;73.70
51719;DHT22;37795;53.236;5.704;2023-05-07T08:48:31;15.20;73.50
51719;DHT22;37795;53.236;5.704;2023-05-07T08:50:58;15.30;73.30
51719;DHT22;37795;53.236;5.704;2023-05-07T08:53:24;15.30;72.90
51719;DHT22;37795;53.236;5.704;2023-05-07T08:55:51;15.20;71.70
51719;DHT22;37795;53.236;5.704;2023-05-07T08:58:18;15.30;71.70
51719;DHT22;37795;53.236;5.704;2023-05-07T09:00:44;15.50;72.00
51719;DHT22;37795;53.236;5.704;2023-05-07T09:03:10;15.60;71.30
51719;DHT22;37795;53.236;5.704;2023-05-07T09:05:39;15.70;72.00
51719;DHT22;37795;53.236;5.704;2023-05-07T09:08:07;15.70;72.40
51719;DHT22;37795;53.236;5.704;2023-05-07T09:10:33;16.00;71.90
51719;DHT22;37795;53.236;5.704;2023-05-07T09:12:59;16.40;71.40
51719;DHT22;37795;53.236;5.704;2023-05-07T09:15:26;16.40;70.60
51719;DHT22;37795;53.236;5.704;2023-05-07T09:17:53;16.60;70.00
51719;DHT22;37795;53.236;5.704;2023-05-07T09:20:19;16.50;70.20
51719;DHT22;37795;53.236;5.704;2023-05-07T09:22:44;16.60;70.30
51719;DHT22;37795;53.236;5.704;2023-05-07T09:25:10;16.70;68.90
51719;DHT22;37795;53.236;5.704;2023-05-07T09:27:36;16.50;69.30
51719;DHT22;37795;53.236;5.704;2023-05-07T09:30:06;16.60;69.30
51719;DHT22;37795;53.236;5.704;2023-05-07T09:32:36;16.80;69.10
51719;DHT22;37795;53.236;5.704;2023-05-07T09:35:05;16.60;69.10
51719;DHT22;37795;53.236;5.704;2023-05-07T09:37:31;16.50;69.40
51719;DHT22;37795;53.236;5.704;2023-05-07T09:39:58;16.70;69.70
51719;DHT22;37795;53.236;5.704;2023-05-07T09:42:24;16.60;69.20
51719;DHT22;37795;53.236;5.704;2023-05-07T09:44:52;16.60;69.00
51719;DHT22;37795;53.236;5.704;2023-05-07T09:47:23;16.70;69.30
51719;DHT22;37795;53.236;5.704;2023-05-07T09:49:50;16.80;69.20
51719;DHT22;37795;53.236;5.704;2023-05-07T09:52:19;17.00;69.00
51719;DHT22;37795;53.236;5.704;2023-05-07T09:54:47;17.10;68.40
51719;DHT22;37795;53.236;5.704;2023-05-07T09:57:15;17.40;68.70
51719;DHT22;37795;53.236;5.704;2023-05-07T09:59:43;17.60;68.10
51719;DHT22;37795;53.236;5.704;2023-05-07T10:02:10;17.80;66.60
51719;DHT22;37795;53.236;5.704;2023-05-07T10:04:37;18.10;66.80
51719;DHT22;37795;53.236;5.704;2023-05-07T10:07:03;18.40;67.30
51719;DHT22;37795;53.236;5.704;2023-05-07T10:09:30;18.50;65.30
51719;DHT22;37795;53.236;5.704;2023-05-07T10:11:57;18.50;65.40
51719;DHT22;37795;53.236;5.704;2023-05-07T10:14:24;18.30;65.70
51719;DHT22;37795;53.236;5.704;2023-05-07T10:16:51;18.00;65.00
51719;DHT22;37795;53.236;5.704;2023-05-07T10:19:19;18.10;65.60
51719;DHT22;37795;53.236;5.704;2023-05-07T10:21:56;18.10;65.20
51719;DHT22;37795;53.236;5.704;2023-05-07T10:24:35;18.20;66.00
51719;DHT22;37795;53.236;5.704;2023-05-07T10:27:06;18.20;65.30
51719;DHT22;37795;53.236;5.704;2023-05-07T10:29:53;18.50;64.30
51719;DHT22;37795;53.236;5.704;2023-05-07T10:35:09;18.70;63.90
51719;DHT22;37795;53.236;5.704;2023-05-07T10:37:36;18.90;64.60
51719;DHT22;37795;53.236;5.704;2023-05-07T10:40:02;18.90;64.50
51719;DHT22;37795;53.236;5.704;2023-05-07T10:42:28;19.10;65.50
51719;DHT22;37795;53.236;5.704;2023-05-07T10:44:54;19.10;63.70
51719;DHT22;37795;53.236;5.704;2023-05-07T10:47:20;19.30;65.50
51719;DHT22;37795;53.236;5.704;2023-05-07T10:56:26;20.10;62.60
51719;DHT22;37795;53.236;5.704;2023-05-07T10:58:53;19.80;64.30
51719;DHT22;37795;53.236;5.704;2023-05-07T11:01:54;20.00;63.20
51719;DHT22;37795;53.236;5.704;2023-05-07T11:04:21;20.10;62.00
51719;DHT22;37795;53.236;5.704;2023-05-07T11:10:04;20.00;61.90
51719;DHT22;37795;53.236;5.704;2023-05-07T11:15:09;19.90;62.10
51719;DHT22;37795;53.236;5.704;2023-05-07T11:18:02;20.00;62.00
51719;DHT22;37795;53.236;5.704;2023-05-07T11:20:52;20.30;61.60
51719;DHT22;37795;53.236;5.704;2023-05-07T11:26:06;20.50;61.30
51719;DHT22;37795;53.236;5.704;2023-05-07T11:28:37;20.40;61.90
51719;DHT22;37795;53.236;5.704;2023-05-07T11:31:04;20.10;61.70
51719;DHT22;37795;53.236;5.704;2023-05-07T11:33:33;20.20;62.50
51719;DHT22;37795;53.236;5.704;2023-05-07T11:36:00;20.30;63.30
51719;DHT22;37795;53.236;5.704;2023-05-07T11:38:29;20.40;61.30
51719;DHT22;37795;53.236;5.704;2023-05-07T11:40:57;20.80;63.00
51719;DHT22;37795;53.236;5.704;2023-05-07T11:43:23;21.00;62.40
51719;DHT22;37795;53.236;5.704;2023-05-07T11:45:50;20.80;61.30
51719;DHT22;37795;53.236;5.704;2023-05-07T11:48:16;20.90;60.20
51719;DHT22;37795;53.236;5.704;2023-05-07T11:50:51;21.00;60.50
51719;DHT22;37795;53.236;5.704;2023-05-07T11:53:18;21.40;60.60
51719;DHT22;37795;53.236;5.704;2023-05-07T11:55:44;21.60;59.10
51719;DHT22;37795;53.236;5.704;2023-05-07T11:58:10;21.50;58.90
51719;DHT22;37795;53.236;5.704;2023-05-07T12:00:36;21.80;60.00
51719;DHT22;37795;53.236;5.704;2023-05-07T12:03:05;21.80;61.00
51719;DHT22;37795;53.236;5.704;2023-05-07T12:05:30;21.70;58.50
51719;DHT22;37795;53.236;5.704;2023-05-07T12:07:57;21.80;59.20
51719;DHT22;37795;53.236;5.704;2023-05-07T12:10:22;21.80;58.90
51719;DHT22;37795;53.236;5.704;2023-05-07T12:12:50;22.30;60.20
51719;DHT22;37795;53.236;5.704;2023-05-07T12:15:16;22.50;57.30
51719;DHT22;37795;53.236;5.704;2023-05-07T12:17:43;22.60;56.50
51719;DHT22;37795;53.236;5.704;2023-05-07T12:20:09;22.10;57.40
51719;DHT22;37795;53.236;5.704;2023-05-07T12:22:36;22.10;57.00
51719;DHT22;37795;53.236;5.704;2023-05-07T12:25:02;22.10;57.80
51719;DHT22;37795;53.236;5.704;2023-05-07T12:27:28;22.40;56.70
51719;DHT22;37795;53.236;5.704;2023-05-07T12:29:54;22.20;56.30
51719;DHT22;37795;53.236;5.704;2023-05-07T12:32:21;22.40;56.60
51719;DHT22;37795;53.236;5.704;2023-05-07T12:34:50;22.60;55.80
51719;DHT22;37795;53.236;5.704;2023-05-07T12:37:16;22.80;55.60
51719;DHT22;37795;53.236;5.704;2023-05-07T12:39:48;22.90;55.70
51719;DHT22;37795;53.236;5.704;2023-05-07T12:42:19;22.90;57.20
51719;DHT22;37795;53.236;5.704;2023-05-07T12:44:46;22.90;55.90
51719;DHT22;37795;53.236;5.704;2023-05-07T12:47:12;23.00;55.00
51719;DHT22;37795;53.236;5.704;2023-05-07T12:49:38;23.30;55.50
51719;DHT22;37795;53.236;5.704;2023-05-07T12:52:05;23.40;55.60
51719;DHT22;37795;53.236;5.704;2023-05-07T12:54:33;23.50;54.00
51719;DHT22;37795;53.236;5.704;2023-05-07T12:57:03;23.50;54.90
51719;DHT22;37795;53.236;5.704;2023-05-07T12:59:37;23.80;54.70
51719;DHT22;37795;53.236;5.704;2023-05-07T13:02:03;23.40;55.20
51719;DHT22;37795;53.236;5.704;2023-05-07T13:04:29;23.50;55.60
51719;DHT22;37795;53.236;5.704;2023-05-07T13:06:55;23.60;55.70
51719;DHT22;37795;53.236;5.704;2023-05-07T13:09:21;23.60;54.90
51719;DHT22;37795;53.236;5.704;2023-05-07T13:11:47;24.00;54.90
51719;DHT22;37795;53.236;5.704;2023-05-07T13:14:12;23.80;53.90
51719;DHT22;37795;53.236;5.704;2023-05-07T13:16:38;23.80;54.30
51719;DHT22;37795;53.236;5.704;2023-05-07T13:19:04;23.20;55.10
51719;DHT22;37795;53.236;5.704;2023-05-07T13:21:30;23.20;55.80
51719;DHT22;37795;53.236;5.704;2023-05-07T13:23:58;23.30;54.90
51719;DHT22;37795;53.236;5.704;2023-05-07T13:26:25;23.50;54.20
51719;DHT22;37795;53.236;5.704;2023-05-07T13:28:51;23.50;55.90
51719;DHT22;37795;53.236;5.704;2023-05-07T13:31:17;23.70;55.10
51719;DHT22;37795;53.236;5.704;2023-05-07T13:33:43;24.10;53.70
51719;DHT22;37795;53.236;5.704;2023-05-07T13:36:09;24.40;53.30
51719;DHT22;37795;53.236;5.704;2023-05-07T13:38:35;24.10;53.70
51719;DHT22;37795;53.236;5.704;2023-05-07T13:41:01;23.70;54.20
51719;DHT22;37795;53.236;5.704;2023-05-07T13:43:27;24.20;54.00
51719;DHT22;37795;53.236;5.704;2023-05-07T13:45:52;23.60;54.20
51719;DHT22;37795;53.236;5.704;2023-05-07T13:48:18;23.00;55.80
51719;DHT22;37795;53.236;5.704;2023-05-07T13:50:44;23.60;55.50
51719;DHT22;37795;53.236;5.704;2023-05-07T13:53:10;23.50;54.60
51719;DHT22;37795;53.236;5.704;2023-05-07T13:55:35;23.30;54.00
51719;DHT22;37795;53.236;5.704;2023-05-07T13:58:02;23.30;56.30
51719;DHT22;37795;53.236;5.704;2023-05-07T14:00:29;23.70;55.60
51719;DHT22;37795;53.236;5.704;2023-05-07T14:02:55;23.60;55.30
51719;DHT22;37795;53.236;5.704;2023-05-07T14:05:22;23.10;55.90
51719;DHT22;37795;53.236;5.704;2023-05-07T14:07:56;23.60;55.00
51719;DHT22;37795;53.236;5.704;2023-05-07T14:10:22;23.70;54.10
51719;DHT22;37795;53.236;5.704;2023-05-07T14:12:48;23.80;54.10
51719;DHT22;37795;53.236;5.704;2023-05-07T14:15:15;23.50;54.70
51719;DHT22;37795;53.236;5.704;2023-05-07T14:17:41;23.10;56.20
51719;DHT22;37795;53.236;5.704;2023-05-07T14:20:08;23.30;55.90
51719;DHT22;37795;53.236;5.704;2023-05-07T14:22:35;23.50;56.90
51719;DHT22;37795;53.236;5.704;2023-05-07T14:25:01;23.60;55.90
51719;DHT22;37795;53.236;5.704;2023-05-07T14:27:27;23.00;56.30
51719;DHT22;37795;53.236;5.704;2023-05-07T14:29:53;22.80;56.10
51719;DHT22;37795;53.236;5.704;2023-05-07T14:32:19;22.70;56.40
51719;DHT22;37795;53.236;5.704;2023-05-07T14:34:45;22.30;57.50
51719;DHT22;37795;53.236;5.704;2023-05-07T14:37:11;22.10;57.50
51719;DHT22;37795;53.236;5.704;2023-05-07T14:39:37;21.80;58.10
51719;DHT22;37795;53.236;5.704;2023-05-07T14:42:03;21.80;58.80
51719;DHT22;37795;53.236;5.704;2023-05-07T14:44:28;21.80;59.70
51719;DHT22;37795;53.236;5.704;2023-05-07T14:46:54;21.70;59.90
51719;DHT22;37795;53.236;5.704;2023-05-07T14:49:20;21.60;60.20
51719;DHT22;37795;53.236;5.704;2023-05-07T14:51:47;21.50;59.90
51719;DHT22;37795;53.236;5.704;2023-05-07T14:54:13;21.20;60.80
51719;DHT22;37795;53.236;5.704;2023-05-07T14:56:39;21.10;60.30
51719;DHT22;37795;53.236;5.704;2023-05-07T14:59:06;21.30;59.80
51719;DHT22;37795;53.236;5.704;2023-05-07T15:01:32;21.20;59.10
51719;DHT22;37795;53.236;5.704;2023-05-07T15:03:59;21.30;58.50
51719;DHT22;37795;53.236;5.704;2023-05-07T15:06:25;21.30;59.00
51719;DHT22;37795;53.236;5.704;2023-05-07T15:08:52;21.40;59.30
51719;DHT22;37795;53.236;5.704;2023-05-07T15:11:18;21.50;58.90
51719;DHT22;37795;53.236;5.704;2023-05-07T15:13:43;21.50;59.60
51719;DHT22;37795;53.236;5.704;2023-05-07T15:16:09;21.50;58.90
51719;DHT22;37795;53.236;5.704;2023-05-07T15:18:35;21.40;58.60
51719;DHT22;37795;53.236;5.704;2023-05-07T15:21:01;21.40;58.10
51719;DHT22;37795;53.236;5.704;2023-05-07T15:23:27;21.40;57.80
51719;DHT22;37795;53.236;5.704;2023-05-07T15:25:53;21.40;58.10
51719;DHT22;37795;53.236;5.704;2023-05-07T15:28:19;21.40;58.20
51719;DHT22;37795;53.236;5.704;2023-05-07T15:30:44;21.30;58.50
51719;DHT22;37795;53.236;5.704;2023-05-07T15:33:10;21.20;58.30
51719;DHT22;37795;53.236;5.704;2023-05-07T15:35:36;21.00;58.60
51719;DHT22;37795;53.236;5.704;2023-05-07T15:38:02;20.80;59.80
51719;DHT22;37795;53.236;5.704;2023-05-07T15:40:29;20.80;59.70
51719;DHT22;37795;53.236;5.704;2023-05-07T15:42:55;20.70;59.90
51719;DHT22;37795;53.236;5.704;2023-05-07T15:45:24;20.70;59.70
51719;DHT22;37795;53.236;5.704;2023-05-07T15:47:50;20.70;60.30
51719;DHT22;37795;53.236;5.704;2023-05-07T15:50:16;20.60;60.40